createdAt,value
2022-11-05T00:01:51.286Z,5.60
2022-11-05T00:04:36.970Z,5.73
2022-11-05T00:07:39.386Z,5.30
2022-11-05T00:10:15.405Z,5.17
2022-11-05T00:13:01.335Z,5.80
2022-11-05T00:15:47.101Z,5.87
2022-11-05T00:18:14.133Z,5.67
2022-11-05T00:20:41.176Z,6.10
2022-11-05T00:23:27.235Z,6.13
2022-11-05T00:25:55.390Z,5.47
2022-11-05T00:28:22.683Z,5.83
2022-11-05T00:30:49.746Z,5.87
2022-11-05T00:33:17.001Z,5.90
2022-11-05T00:35:44.034Z,6.20
2022-11-05T00:38:11.101Z,6.20
2022-11-05T00:40:38.927Z,6.43
2022-11-05T00:43:24.535Z,6.23
2022-11-05T00:45:51.579Z,6.73
2022-11-05T00:48:37.223Z,7.00
2022-11-05T00:51:04.374Z,6.73
2022-11-05T00:53:31.500Z,6.77
2022-11-05T00:55:58.682Z,6.13
2022-11-05T00:58:27.164Z,6.20
2022-11-05T01:00:55.216Z,6.70
2022-11-05T01:03:23.203Z,6.50
2022-11-05T01:05:51.779Z,6.50
2022-11-05T01:08:20.215Z,6.50
2022-11-05T01:10:51.383Z,7.07
2022-11-05T01:13:20.197Z,7.47
2022-11-05T01:15:47.539Z,6.90
2022-11-05T01:18:14.856Z,7.03
2022-11-05T01:20:41.904Z,6.90
2022-11-05T01:23:13.500Z,7.47
2022-11-05T01:25:41.453Z,7.00
2022-11-05T01:28:09.610Z,7.33
2022-11-05T01:30:36.882Z,7.20
2022-11-05T01:33:04.118Z,7.93
2022-11-05T01:35:31.196Z,7.73
2022-11-05T01:37:58.283Z,7.73
2022-11-05T01:40:26.029Z,8.17
2022-11-05T01:42:53.553Z,7.67
2022-11-05T01:45:25.120Z,7.53
2022-11-05T01:47:56.247Z,6.97
2022-11-05T01:50:23.273Z,7.47
2022-11-05T01:52:53.062Z,7.23
2022-11-05T01:55:22.377Z,7.33
2022-11-05T01:57:49.862Z,6.93
2022-11-05T02:00:17.029Z,7.17
2022-11-05T02:02:44.759Z,7.13
2022-11-05T02:05:13.099Z,7.07
2022-11-05T02:07:40.384Z,6.53
2022-11-05T02:10:13.655Z,6.33
2022-11-05T02:12:42.569Z,6.57
2022-11-05T02:15:23.946Z,6.10
2022-11-05T02:17:51.305Z,6.67
2022-11-05T02:20:29.150Z,6.20
2022-11-05T02:23:05.293Z,6.10
2022-11-05T02:25:50.918Z,6.10
2022-11-05T02:28:20.864Z,5.77
2022-11-05T02:30:53.790Z,6.47
2022-11-05T02:33:39.062Z,6.23
2022-11-05T02:36:09.048Z,6.13
2022-11-05T02:38:36.156Z,6.60
2022-11-05T02:41:09.279Z,6.20
2022-11-05T02:43:36.304Z,5.63
2022-11-05T02:46:15.615Z,5.90
2022-11-05T02:48:50.922Z,6.17
2022-11-05T02:51:32.240Z,5.80
2022-11-05T02:53:59.271Z,6.10
2022-11-05T02:56:40.907Z,6.70
2022-11-05T02:59:08.018Z,6.23
2022-11-05T03:01:36.239Z,6.20
2022-11-05T03:04:05.157Z,6.37
2022-11-05T03:06:39.094Z,5.80
2022-11-05T03:09:09.211Z,6.53
2022-11-05T03:11:42.195Z,5.50
2022-11-05T03:14:32.255Z,5.73
2022-11-05T03:16:59.280Z,6.07
2022-11-05T03:19:29.489Z,5.77
2022-11-05T03:22:01.455Z,6.17
2022-11-05T03:24:30.951Z,5.37
2022-11-05T03:27:00.929Z,5.73
2022-11-05T03:29:30.818Z,6.40
2022-11-05T03:32:01.766Z,6.10
2022-11-05T03:34:31.871Z,5.80
2022-11-05T03:36:59.344Z,5.60
2022-11-05T03:39:31.018Z,5.97
2022-11-05T03:41:58.622Z,6.00
2022-11-05T03:44:26.879Z,6.30
2022-11-05T03:46:55.960Z,5.63
2022-11-05T03:49:25.948Z,6.23
2022-11-05T03:52:04.158Z,5.87
2022-11-05T03:54:31.274Z,5.87
2022-11-05T03:56:58.306Z,6.23
2022-11-05T03:59:26.145Z,6.60
2022-11-05T04:01:54.205Z,6.37
2022-11-05T04:04:21.330Z,7.47
2022-11-05T04:07:07.057Z,7.10
2022-11-05T04:09:52.886Z,6.80
2022-11-05T04:12:38.858Z,6.63
2022-11-05T04:15:06.091Z,7.13
2022-11-05T04:17:33.153Z,7.90
2022-11-05T04:20:18.611Z,7.43
2022-11-05T04:23:04.616Z,8.57
2022-11-05T04:25:31.688Z,8.20
2022-11-05T04:28:00.472Z,8.00
2022-11-05T04:30:27.780Z,8.20
2022-11-05T04:33:05.734Z,8.67
2022-11-05T04:35:37.471Z,8.07
2022-11-05T04:38:08.797Z,8.00
2022-11-05T04:40:36.256Z,8.00
2022-11-05T04:43:03.734Z,8.10
2022-11-05T04:45:34.192Z,8.33
2022-11-05T04:48:01.789Z,8.23
2022-11-05T04:50:29.234Z,8.07
2022-11-05T04:52:56.258Z,8.00
2022-11-05T04:55:23.496Z,8.00
2022-11-05T04:57:54.009Z,8.27
2022-11-05T05:00:21.839Z,8.63
2022-11-05T05:02:49.218Z,8.00
2022-11-05T05:05:16.268Z,7.93
2022-11-05T05:07:43.727Z,8.23
2022-11-05T05:10:11.328Z,8.00
2022-11-05T05:12:38.378Z,8.13
2022-11-05T05:15:05.587Z,8.60
2022-11-05T05:17:32.647Z,8.53
2022-11-05T05:20:18.626Z,8.53
2022-11-05T05:22:51.526Z,8.40
2022-11-05T05:25:18.579Z,8.33
2022-11-05T05:27:45.609Z,8.60
2022-11-05T05:30:12.769Z,8.30
2022-11-05T05:32:39.823Z,8.20
2022-11-05T05:35:07.006Z,8.30
2022-11-05T05:37:34.045Z,7.87
2022-11-05T05:40:01.064Z,8.23
2022-11-05T05:42:28.090Z,8.00
2022-11-05T05:44:55.129Z,7.93
2022-11-05T05:47:22.213Z,8.03
2022-11-05T05:49:49.293Z,8.80
2022-11-05T05:52:16.296Z,8.40
2022-11-05T05:54:43.327Z,8.90
2022-11-05T05:57:10.380Z,8.03
2022-11-05T05:59:37.425Z,8.07
2022-11-05T06:02:04.610Z,7.80
2022-11-05T06:04:31.759Z,7.87
2022-11-05T06:06:58.779Z,8.23
2022-11-05T06:09:25.855Z,7.87
2022-11-05T06:11:52.965Z,8.10
2022-11-05T06:14:20.011Z,8.23
2022-11-05T06:16:47.150Z,8.17
2022-11-05T06:19:14.254Z,8.87
2022-11-05T06:21:41.305Z,8.13
2022-11-05T06:24:08.569Z,8.00
2022-11-05T06:26:35.603Z,8.80
2022-11-05T06:29:02.638Z,8.60
2022-11-05T06:31:29.669Z,7.83
2022-11-05T06:33:56.673Z,7.87
2022-11-05T06:36:23.709Z,8.63
2022-11-05T06:38:50.732Z,8.30
2022-11-05T06:41:17.789Z,8.50
2022-11-05T06:43:44.810Z,8.47
2022-11-05T06:46:12.006Z,7.67
2022-11-05T06:48:39.556Z,8.27
2022-11-05T06:51:07.797Z,8.37
2022-11-05T06:53:35.084Z,7.90
2022-11-05T06:56:02.706Z,8.10
2022-11-05T06:58:30.829Z,7.93
2022-11-05T07:01:01.797Z,7.93
2022-11-05T07:03:28.994Z,7.63
2022-11-05T07:05:57.786Z,8.30
2022-11-05T07:08:24.950Z,8.43
2022-11-05T07:10:52.017Z,8.00
2022-11-05T07:13:19.288Z,7.93
2022-11-05T07:15:46.371Z,8.03
2022-11-05T07:18:13.479Z,7.83
2022-11-05T07:20:40.530Z,8.30
2022-11-05T07:23:12.714Z,7.50
2022-11-05T07:25:40.724Z,7.43
2022-11-05T07:28:08.324Z,7.83
2022-11-05T07:30:36.022Z,8.30
2022-11-05T07:33:03.296Z,7.63
2022-11-05T07:35:30.362Z,7.50
2022-11-05T07:37:57.703Z,7.40
2022-11-05T07:40:25.965Z,7.27
2022-11-05T07:42:54.059Z,6.97
2022-11-05T07:45:21.444Z,7.30
2022-11-05T07:48:01.672Z,7.77
2022-11-05T07:50:36.587Z,6.97
2022-11-05T07:53:05.338Z,6.93
2022-11-05T07:55:32.837Z,7.20
2022-11-05T07:57:59.937Z,7.33
2022-11-05T08:00:27.570Z,7.70
2022-11-05T08:03:07.274Z,7.50
2022-11-05T08:05:39.361Z,7.13
2022-11-05T08:08:07.863Z,7.80
2022-11-05T08:10:35.420Z,6.80
2022-11-05T08:13:02.845Z,7.40
2022-11-05T08:15:30.216Z,7.13
2022-11-05T08:18:00.795Z,6.50
2022-11-05T08:20:28.654Z,6.80
2022-11-05T08:22:56.094Z,7.47
2022-11-05T08:25:23.177Z,7.33
2022-11-05T08:27:55.812Z,7.63
2022-11-05T08:30:22.912Z,7.33
2022-11-05T08:32:49.990Z,7.43
2022-11-05T08:35:17.098Z,7.17
2022-11-05T08:37:44.150Z,6.77
2022-11-05T08:40:11.403Z,7.30
2022-11-05T08:42:38.445Z,6.90
2022-11-05T08:45:05.601Z,7.10
2022-11-05T08:47:32.641Z,6.37
2022-11-05T08:50:00.079Z,7.10
2022-11-05T08:52:27.136Z,7.10
2022-11-05T08:54:54.176Z,6.70
2022-11-05T08:57:21.239Z,6.43
2022-11-05T08:59:48.315Z,6.60
2022-11-05T09:02:15.501Z,6.67
2022-11-05T09:04:42.695Z,7.03
2022-11-05T09:07:09.759Z,6.90
2022-11-05T09:09:36.829Z,5.97
2022-11-05T09:12:12.426Z,6.30
2022-11-05T09:14:40.108Z,6.00
2022-11-05T09:17:13.937Z,6.70
2022-11-05T09:19:40.992Z,6.27
2022-11-05T09:22:08.016Z,6.33
2022-11-05T09:24:35.071Z,6.10
2022-11-05T09:27:02.110Z,6.33
2022-11-05T09:29:29.145Z,6.30
2022-11-05T09:31:56.233Z,6.30
2022-11-05T09:34:23.907Z,6.33
2022-11-05T09:36:50.922Z,6.87
2022-11-05T09:39:17.968Z,5.97
2022-11-05T09:41:46.382Z,6.00
2022-11-05T09:44:13.453Z,5.73
2022-11-05T09:46:43.538Z,5.37
2022-11-05T09:49:16.701Z,5.27
2022-11-05T09:51:43.816Z,5.20
2022-11-05T09:54:12.686Z,5.47
2022-11-05T09:56:42.150Z,5.07
2022-11-05T09:59:16.534Z,5.33
2022-11-05T10:01:44.079Z,4.80
2022-11-05T10:04:15.451Z,4.47
2022-11-05T10:07:02.722Z,5.00
2022-11-05T10:09:46.345Z,4.90
2022-11-05T10:12:17.159Z,3.90
2022-11-05T10:14:47.382Z,4.40
2022-11-05T10:17:24.248Z,3.97
2022-11-05T10:19:57.457Z,4.50
2022-11-05T10:22:25.490Z,4.50
2022-11-05T10:24:53.188Z,4.17
2022-11-05T10:27:24.742Z,4.37
2022-11-05T10:29:52.300Z,4.17
2022-11-05T10:32:26.719Z,4.30
2022-11-05T10:34:54.711Z,3.87
2022-11-05T10:37:24.028Z,4.10
2022-11-05T10:39:51.102Z,3.47
2022-11-05T10:42:21.150Z,3.90
2022-11-05T10:44:57.351Z,3.60
2022-11-05T10:47:33.703Z,3.17
2022-11-05T10:50:01.831Z,3.70
2022-11-05T10:52:55.331Z,3.50
2022-11-05T10:55:24.906Z,3.57
2022-11-05T10:57:52.181Z,3.27
2022-11-05T11:00:19.395Z,3.33
2022-11-05T11:02:48.037Z,3.30
2022-11-05T11:05:22.830Z,3.23
2022-11-05T11:08:12.591Z,3.07
2022-11-05T11:10:48.789Z,2.73
2022-11-05T11:13:21.017Z,2.50
2022-11-05T11:15:50.704Z,2.90
2022-11-05T11:18:42.003Z,2.60
2022-11-05T11:21:17.103Z,2.67
2022-11-05T11:23:53.669Z,2.60
2022-11-05T11:26:21.791Z,2.40
2022-11-05T11:28:49.692Z,2.00
2022-11-05T11:31:18.333Z,2.30
2022-11-05T11:33:47.373Z,2.17
2022-11-05T11:36:17.039Z,2.20
2022-11-05T11:38:44.217Z,2.07
2022-11-05T11:41:11.490Z,2.10
2022-11-05T11:43:40.403Z,2.23
2022-11-05T11:46:15.315Z,2.00
2022-11-05T11:48:43.216Z,2.10
2022-11-05T11:51:22.609Z,2.13
2022-11-05T11:53:50.039Z,1.87
2022-11-05T11:56:20.712Z,1.73
2022-11-05T11:58:47.799Z,2.10
2022-11-05T12:01:20.836Z,1.87
2022-11-05T12:03:47.882Z,1.90
2022-11-05T12:06:50.401Z,1.77
2022-11-05T12:09:21.100Z,1.80
2022-11-05T12:11:53.994Z,1.80
2022-11-05T12:14:46.787Z,1.80
2022-11-05T12:17:32.168Z,1.90
2022-11-05T12:20:01.929Z,1.50
2022-11-05T12:22:52.016Z,1.90
2022-11-05T12:25:19.019Z,2.30
2022-11-05T12:27:56.217Z,1.90
2022-11-05T12:30:23.623Z,1.33
2022-11-05T12:33:06.056Z,1.20
2022-11-05T12:35:50.994Z,1.13
2022-11-05T12:38:28.452Z,1.43
2022-11-05T12:40:55.773Z,1.23
2022-11-05T12:43:46.160Z,1.30
2022-11-05T12:46:25.464Z,1.10
2022-11-05T12:48:58.622Z,1.20
2022-11-05T12:51:25.618Z,1.27
2022-11-05T12:53:52.661Z,1.57
2022-11-05T12:56:21.863Z,1.43
2022-11-05T12:58:52.437Z,1.07
2022-11-05T13:01:21.688Z,1.47
2022-11-05T13:03:52.627Z,1.50
2022-11-05T13:06:22.333Z,1.40
2022-11-05T13:08:57.785Z,1.40
2022-11-05T13:11:29.158Z,1.33
2022-11-05T13:14:09.472Z,1.53
2022-11-05T13:16:43.046Z,1.50
2022-11-05T13:19:16.658Z,1.60
2022-11-05T13:21:44.705Z,1.30
2022-11-05T13:24:15.728Z,1.40
2022-11-05T13:26:57.593Z,1.20
2022-11-05T13:29:37.666Z,1.10
2022-11-05T13:32:23.534Z,1.60
2022-11-05T13:34:50.784Z,1.10
2022-11-05T13:37:41.885Z,1.00
2022-11-05T13:40:10.524Z,1.23
2022-11-05T13:42:56.095Z,1.10
2022-11-05T13:45:41.642Z,1.20
2022-11-05T13:48:11.778Z,1.30
2022-11-05T13:51:17.576Z,1.27
2022-11-05T13:54:03.069Z,1.20
2022-11-05T13:56:34.081Z,1.20
2022-11-05T13:59:10.812Z,1.07
2022-11-05T14:01:44.150Z,1.30
2022-11-05T14:04:25.957Z,1.23
2022-11-05T14:06:53.252Z,1.10
2022-11-05T14:09:25.195Z,1.40
2022-11-05T14:11:55.678Z,1.40
2022-11-05T14:14:25.409Z,1.20
2022-11-05T14:16:54.426Z,1.50
2022-11-05T14:19:21.448Z,1.50
2022-11-05T14:21:50.105Z,1.50
2022-11-05T14:24:23.391Z,1.50
2022-11-05T14:27:02.585Z,1.50
2022-11-05T14:29:44.143Z,1.80
2022-11-05T14:32:20.287Z,1.60
2022-11-05T14:34:49.256Z,1.90
2022-11-05T14:37:27.540Z,2.10
2022-11-05T14:39:55.612Z,2.00
2022-11-05T14:42:27.414Z,1.97
2022-11-05T14:44:59.461Z,1.70
2022-11-05T14:47:27.883Z,1.50
2022-11-05T14:49:59.424Z,2.03
2022-11-05T14:52:26.473Z,2.00
2022-11-05T14:54:55.867Z,4.77
2022-11-05T14:57:43.981Z,1.80
2022-11-05T15:00:29.549Z,1.80
2022-11-05T15:02:57.931Z,2.00
2022-11-05T15:05:50.044Z,1.80
2022-11-05T15:08:36.293Z,1.70
2022-11-05T15:11:08.160Z,1.63
2022-11-05T15:13:37.201Z,1.90
2022-11-05T15:16:05.894Z,1.80
2022-11-05T15:18:38.885Z,2.00
2022-11-05T15:21:07.881Z,1.70
2022-11-05T15:23:41.394Z,2.00
2022-11-05T15:26:12.577Z,1.90
2022-11-05T15:28:39.579Z,2.13
2022-11-05T15:31:21.205Z,2.10
2022-11-05T15:33:48.336Z,2.47
2022-11-05T15:36:25.832Z,2.40
2022-11-05T15:39:23.059Z,2.70
2022-11-05T15:41:40.492Z,2.33
2022-11-05T15:44:23.557Z,2.40
2022-11-05T15:47:04.735Z,2.70
2022-11-05T15:49:31.815Z,2.80
2022-11-05T15:51:58.880Z,3.00
2022-11-05T15:54:30.699Z,3.93
2022-11-05T15:56:59.417Z,6.03
2022-11-05T15:59:27.584Z,9.93
2022-11-05T16:01:57.902Z,16.23
2022-11-05T16:04:34.545Z,10.47
2022-11-05T16:07:07.347Z,6.17
2022-11-05T16:09:35.553Z,7.97
2022-11-05T16:12:20.814Z,7.33
2022-11-05T16:14:58.070Z,7.50
2022-11-05T16:17:26.504Z,7.20
2022-11-05T16:19:53.892Z,6.40
2022-11-05T16:22:21.284Z,5.40
2022-11-05T16:24:48.842Z,5.07
2022-11-05T16:27:20.160Z,3.07
2022-11-05T16:29:51.747Z,2.97
2022-11-05T16:32:25.445Z,2.50
2022-11-05T16:35:00.757Z,2.40
2022-11-05T16:37:28.042Z,5.87
2022-11-05T16:39:56.112Z,4.07
2022-11-05T16:42:23.172Z,3.57
2022-11-05T16:44:50.881Z,3.43
2022-11-05T16:47:18.160Z,4.00
2022-11-05T16:49:45.232Z,5.67
2022-11-05T16:52:13.107Z,5.87
2022-11-05T16:54:40.361Z,6.33
2022-11-05T16:57:08.442Z,4.90
2022-11-05T16:59:35.486Z,4.67
2022-11-05T17:02:02.599Z,6.63
2022-11-05T17:04:29.767Z,8.73
2022-11-05T17:06:56.813Z,20.07
2022-11-05T17:09:23.828Z,16.83
2022-11-05T17:11:50.877Z,16.83
2022-11-05T17:14:17.900Z,16.53
2022-11-05T17:16:44.940Z,12.00
2022-11-05T17:19:15.475Z,10.00
2022-11-05T17:21:42.737Z,11.23
2022-11-05T17:24:09.775Z,11.13
2022-11-05T17:26:36.807Z,12.20
2022-11-05T17:29:03.889Z,11.20
2022-11-05T17:31:30.939Z,8.83
2022-11-05T17:33:58.626Z,15.33
2022-11-05T17:36:25.955Z,14.90
2022-11-05T17:38:53.479Z,11.30
2022-11-05T17:41:21.752Z,12.07
2022-11-05T17:43:49.620Z,11.60
2022-11-05T17:46:17.389Z,6.47
2022-11-05T17:48:44.828Z,5.37
2022-11-05T17:51:13.097Z,4.87
2022-11-05T17:53:44.404Z,4.97
2022-11-05T17:56:12.448Z,4.73
2022-11-05T17:58:39.825Z,4.67
2022-11-05T18:01:08.118Z,5.27
2022-11-05T18:03:35.340Z,11.37
2022-11-05T18:06:06.048Z,12.40
2022-11-05T18:08:33.514Z,8.87
2022-11-05T18:11:00.569Z,11.93
2022-11-05T18:13:27.620Z,13.40
2022-11-05T18:15:55.184Z,9.30
2022-11-05T18:18:22.549Z,6.13
2022-11-05T18:20:49.628Z,4.63
2022-11-05T18:23:16.643Z,4.73
2022-11-05T18:25:43.755Z,5.17
2022-11-05T18:28:11.074Z,5.20
2022-11-05T18:30:39.259Z,5.47
2022-11-05T18:33:06.402Z,5.50
2022-11-05T18:35:33.480Z,6.47
2022-11-05T18:38:00.606Z,6.07
2022-11-05T18:40:27.673Z,5.57
2022-11-05T18:42:54.790Z,4.50
2022-11-05T18:45:26.879Z,4.97
2022-11-05T18:47:56.582Z,4.10
2022-11-05T18:50:23.627Z,3.70
2022-11-05T18:52:50.674Z,3.80
2022-11-05T18:55:17.816Z,4.27
2022-11-05T18:57:44.857Z,4.23
2022-11-05T19:00:12.590Z,4.30
2022-11-05T19:02:39.739Z,4.50
2022-11-05T19:05:27.964Z,5.00
2022-11-05T19:07:54.220Z,4.97
2022-11-05T19:10:21.286Z,5.10
2022-11-05T19:12:48.396Z,5.50
2022-11-05T19:15:15.496Z,4.80
2022-11-05T19:17:42.636Z,5.83
2022-11-05T19:20:09.839Z,5.60
2022-11-05T19:22:37.024Z,6.17
2022-11-05T19:25:04.439Z,6.47
2022-11-05T19:27:31.500Z,6.57
2022-11-05T19:29:58.556Z,6.43
2022-11-05T19:32:25.553Z,6.90
2022-11-05T19:34:52.574Z,6.17
2022-11-05T19:37:19.951Z,5.60
2022-11-05T19:39:46.983Z,5.40
2022-11-05T19:42:14.154Z,5.60
2022-11-05T19:44:41.570Z,5.87
2022-11-05T19:47:08.617Z,5.83
2022-11-05T19:49:35.631Z,6.17
2022-11-05T19:52:02.683Z,5.90
2022-11-05T19:54:29.823Z,6.53
2022-11-05T19:56:57.256Z,6.73
2022-11-05T19:59:24.298Z,6.90
2022-11-05T20:01:51.494Z,7.40
2022-11-05T20:04:18.650Z,7.03
2022-11-05T20:06:45.662Z,7.03
2022-11-05T20:09:22.449Z,6.50
2022-11-05T20:11:50.602Z,6.47
2022-11-05T20:14:17.978Z,7.37
2022-11-05T20:16:45.715Z,7.20
2022-11-05T20:19:16.759Z,6.50
2022-11-05T20:21:44.389Z,6.17
2022-11-05T20:24:12.539Z,6.87
2022-11-05T20:26:39.631Z,7.07
2022-11-05T20:29:06.749Z,6.13
2022-11-05T20:31:33.983Z,6.47
2022-11-05T20:34:01.123Z,6.43
2022-11-05T20:36:28.227Z,6.30
2022-11-05T20:38:59.159Z,6.30
2022-11-05T20:41:26.644Z,6.20
2022-11-05T20:43:53.934Z,6.47
2022-11-05T20:46:22.106Z,6.63
2022-11-05T20:48:49.401Z,7.13
2022-11-05T20:51:17.509Z,6.43
2022-11-05T20:53:46.160Z,6.47
2022-11-05T20:56:20.528Z,6.87
2022-11-05T20:58:47.788Z,6.37
2022-11-05T21:01:16.662Z,6.40
2022-11-05T21:03:44.355Z,5.57
2022-11-05T21:06:11.818Z,5.77
2022-11-05T21:08:39.055Z,6.10
2022-11-05T21:11:07.020Z,6.70
2022-11-05T21:13:34.405Z,6.20
2022-11-05T21:16:01.462Z,6.83
2022-11-05T21:18:32.483Z,6.17
2022-11-05T21:21:00.403Z,6.13
2022-11-05T21:23:28.745Z,5.70
2022-11-05T21:25:56.155Z,5.80
2022-11-05T21:28:23.413Z,6.13
2022-11-05T21:30:50.512Z,5.93
2022-11-05T21:33:18.720Z,5.97
2022-11-05T21:35:47.070Z,5.80
2022-11-05T21:38:15.321Z,5.70
2022-11-05T21:40:43.018Z,5.37
2022-11-05T21:43:10.311Z,5.40
2022-11-05T21:45:44.257Z,4.77
2022-11-05T21:48:12.067Z,5.17
2022-11-05T21:50:58.411Z,4.93
2022-11-05T21:53:44.524Z,5.07
2022-11-05T21:56:37.223Z,4.80
2022-11-05T21:59:23.878Z,5.03
2022-11-05T22:01:51.344Z,5.67
2022-11-05T22:04:18.456Z,5.00
2022-11-05T22:06:45.513Z,5.00
2022-11-05T22:09:12.576Z,4.63
2022-11-05T22:11:39.635Z,4.00
2022-11-05T22:14:06.687Z,4.30
2022-11-05T22:16:33.735Z,4.47
2022-11-05T22:19:00.795Z,4.00
2022-11-05T22:21:27.841Z,4.20
2022-11-05T22:23:54.899Z,4.23
2022-11-05T22:26:22.029Z,4.27
2022-11-05T22:28:49.099Z,4.53
2022-11-05T22:31:16.798Z,4.33
2022-11-05T22:33:44.369Z,4.13
2022-11-05T22:36:11.877Z,4.17
2022-11-05T22:38:39.103Z,3.67
2022-11-05T22:41:10.201Z,3.80
2022-11-05T22:43:37.544Z,3.53
2022-11-05T22:46:05.760Z,3.87
2022-11-05T22:48:32.982Z,3.83
2022-11-05T22:51:07.295Z,4.00
2022-11-05T22:53:35.140Z,3.80
2022-11-05T22:56:06.238Z,3.87
2022-11-05T22:58:33.526Z,3.47
2022-11-05T23:01:01.669Z,3.50
2022-11-05T23:03:29.572Z,3.77
2022-11-05T23:05:57.638Z,3.80
2022-11-05T23:08:43.555Z,3.50
2022-11-05T23:11:36.036Z,3.40
2022-11-05T23:14:03.151Z,3.20
2022-11-05T23:16:49.146Z,3.30
2022-11-05T23:19:35.068Z,3.13
2022-11-05T23:22:20.948Z,3.30
2022-11-05T23:24:48.401Z,3.40
2022-11-05T23:27:15.454Z,3.60
2022-11-05T23:29:42.497Z,4.00
2022-11-05T23:32:24.574Z,3.37
2022-11-05T23:34:55.764Z,3.03
2022-11-05T23:37:42.230Z,3.47
2022-11-05T23:40:10.869Z,3.47
2022-11-05T23:43:04.118Z,3.30
2022-11-05T23:45:49.551Z,3.17
2022-11-05T23:48:19.065Z,3.00
2022-11-05T23:51:12.455Z,3.47
2022-11-05T23:53:41.399Z,3.13
2022-11-05T23:56:12.803Z,3.77
2022-11-05T23:58:40.565Z,3.00
